createdAt,value
2018-12-30T00:02:16.414Z,99.90
2018-12-30T00:04:53.923Z,99.90
2018-12-30T00:07:31.397Z,99.90
2018-12-30T00:10:08.995Z,99.90
2018-12-30T00:12:46.510Z,99.90
2018-12-30T00:15:24.757Z,99.90
2018-12-30T00:18:02.245Z,99.90
2018-12-30T00:20:39.716Z,99.90
2018-12-30T00:23:17.228Z,99.80
2018-12-30T00:25:54.704Z,99.80
2018-12-30T00:28:32.236Z,99.70
2018-12-30T00:31:09.706Z,99.70
2018-12-30T00:33:47.222Z,99.60
2018-12-30T00:36:24.722Z,99.50
2018-12-30T00:39:02.218Z,99.50
2018-12-30T00:41:39.692Z,99.50
2018-12-30T00:44:17.203Z,99.40
2018-12-30T00:46:54.696Z,99.40
2018-12-30T00:49:32.818Z,99.30
2018-12-30T00:52:10.297Z,99.30
2018-12-30T00:54:47.801Z,99.30
2018-12-30T00:57:25.295Z,99.30
2018-12-30T01:00:02.799Z,99.30
2018-12-30T01:02:40.284Z,99.30
2018-12-30T01:05:17.771Z,99.50
2018-12-30T01:07:55.304Z,99.50
2018-12-30T01:10:32.817Z,99.60
2018-12-30T01:13:10.300Z,99.60
2018-12-30T01:15:47.809Z,99.70
2018-12-30T01:18:25.324Z,99.60
2018-12-30T01:21:02.810Z,99.50
2018-12-30T01:23:40.298Z,99.50
2018-12-30T01:26:17.774Z,99.30
2018-12-30T01:28:55.298Z,99.10
2018-12-30T01:31:32.784Z,99.10
2018-12-30T01:34:10.283Z,99.10
2018-12-30T01:36:47.845Z,99.30
2018-12-30T01:39:25.269Z,99.50
2018-12-30T01:42:02.758Z,99.60
2018-12-30T01:44:40.261Z,99.70
2018-12-30T01:47:17.745Z,99.80
2018-12-30T01:49:55.243Z,99.90
2018-12-30T01:52:32.730Z,99.90
2018-12-30T01:55:10.251Z,99.90
2018-12-30T01:57:47.737Z,99.90
2018-12-30T02:00:25.230Z,99.90
2018-12-30T02:03:02.731Z,99.90
2018-12-30T02:05:40.228Z,99.90
2018-12-30T02:08:17.719Z,99.90
2018-12-30T02:10:55.224Z,99.90
2018-12-30T02:13:32.700Z,99.90
2018-12-30T02:16:10.199Z,99.90
2018-12-30T02:18:47.709Z,99.90
2018-12-30T02:21:26.546Z,99.90
2018-12-30T02:24:03.957Z,99.90
2018-12-30T02:26:41.438Z,99.90
2018-12-30T02:29:18.962Z,99.90
2018-12-30T02:31:56.456Z,99.90
2018-12-30T02:34:33.972Z,99.90
2018-12-30T02:37:11.470Z,99.90
2018-12-30T02:39:49.288Z,99.90
2018-12-30T02:42:26.770Z,99.90
2018-12-30T02:45:04.289Z,99.90
2018-12-30T02:47:41.769Z,99.90
2018-12-30T02:50:19.272Z,99.90
2018-12-30T02:52:56.763Z,99.90
2018-12-30T02:55:34.264Z,99.90
2018-12-30T02:58:11.752Z,99.90
2018-12-30T03:00:49.271Z,99.90
2018-12-30T03:03:26.767Z,99.90
2018-12-30T03:06:04.255Z,99.90
2018-12-30T03:08:41.735Z,99.90
2018-12-30T03:11:19.225Z,99.90
2018-12-30T03:13:56.705Z,99.90
2018-12-30T03:16:34.218Z,99.90
2018-12-30T03:19:11.686Z,99.90
2018-12-30T03:21:49.189Z,99.90
2018-12-30T03:24:26.693Z,99.90
2018-12-30T03:27:04.210Z,99.90
2018-12-30T03:29:41.743Z,99.90
2018-12-30T03:32:19.217Z,99.90
2018-12-30T03:34:56.719Z,99.90
2018-12-30T03:37:34.198Z,99.90
2018-12-30T03:40:12.251Z,99.90
2018-12-30T03:42:49.730Z,99.90
2018-12-30T03:45:27.246Z,99.90
2018-12-30T03:48:04.758Z,99.90
2018-12-30T03:50:42.251Z,99.90
2018-12-30T03:53:19.731Z,99.90
2018-12-30T03:55:57.231Z,99.90
2018-12-30T03:58:34.701Z,99.90
2018-12-30T04:01:12.226Z,99.90
2018-12-30T04:03:49.703Z,99.90
2018-12-30T04:06:27.208Z,99.90
2018-12-30T04:09:04.870Z,99.90
2018-12-30T04:11:42.361Z,99.90
2018-12-30T04:14:19.849Z,99.90
2018-12-30T04:16:57.392Z,99.90
2018-12-30T04:19:34.827Z,99.90
2018-12-30T04:22:16.785Z,99.90
2018-12-30T04:24:49.849Z,99.50
2018-12-30T04:27:27.328Z,99.00
2018-12-30T04:30:04.854Z,98.70
2018-12-30T04:32:42.345Z,98.40
2018-12-30T04:35:19.838Z,97.60
2018-12-30T04:37:57.328Z,97.30
2018-12-30T04:40:34.822Z,97.00
2018-12-30T04:43:12.296Z,96.50
2018-12-30T04:45:49.792Z,96.50
2018-12-30T04:48:27.275Z,96.70
2018-12-30T04:51:04.770Z,96.70
2018-12-30T04:53:42.250Z,96.70
2018-12-30T04:56:19.759Z,96.80
2018-12-30T04:58:57.235Z,97.00
2018-12-30T05:01:34.721Z,97.30
2018-12-30T05:04:12.214Z,97.60
2018-12-30T05:06:49.719Z,97.70
2018-12-30T05:09:27.202Z,97.70
2018-12-30T05:12:04.694Z,97.40
2018-12-30T05:14:42.198Z,97.10
2018-12-30T05:17:19.728Z,97.20
2018-12-30T05:19:57.212Z,97.10
2018-12-30T05:22:34.700Z,97.00
2018-12-30T05:25:12.192Z,96.60
2018-12-30T05:27:49.687Z,96.30
2018-12-30T05:30:27.203Z,96.40
2018-12-30T05:33:04.688Z,96.20
2018-12-30T05:35:42.186Z,96.00
2018-12-30T05:38:19.659Z,95.70
2018-12-30T05:40:57.186Z,95.30
2018-12-30T05:43:34.678Z,95.10
2018-12-30T05:46:12.179Z,95.00
2018-12-30T05:48:49.665Z,95.10
2018-12-30T05:51:27.443Z,94.80
2018-12-30T05:54:04.916Z,94.90
2018-12-30T05:56:42.425Z,94.60
2018-12-30T05:59:19.924Z,94.50
2018-12-30T06:01:57.403Z,94.50
2018-12-30T06:04:34.895Z,94.30
2018-12-30T06:07:12.391Z,94.00
2018-12-30T06:09:49.867Z,93.90
2018-12-30T06:12:27.365Z,93.70
2018-12-30T06:15:04.958Z,93.80
2018-12-30T06:17:42.471Z,93.70
2018-12-30T06:20:19.958Z,93.60
2018-12-30T06:22:57.456Z,93.60
2018-12-30T06:25:34.952Z,93.50
2018-12-30T06:28:12.484Z,93.50
2018-12-30T06:30:49.980Z,93.50
2018-12-30T06:33:27.458Z,93.40
2018-12-30T06:36:05.021Z,93.40
2018-12-30T06:38:42.499Z,93.20
2018-12-30T06:41:20.001Z,93.20
2018-12-30T06:43:57.464Z,93.20
2018-12-30T06:46:35.205Z,93.20
2018-12-30T06:49:12.677Z,93.00
2018-12-30T06:51:50.180Z,93.10
2018-12-30T06:54:27.643Z,92.90
2018-12-30T06:57:05.146Z,92.70
2018-12-30T06:59:42.640Z,92.50
2018-12-30T07:02:20.226Z,92.50
2018-12-30T07:04:57.697Z,92.20
2018-12-30T07:07:35.187Z,92.00
2018-12-30T07:10:12.652Z,92.00
2018-12-30T07:12:50.162Z,92.10
2018-12-30T07:15:27.644Z,92.10
2018-12-30T07:18:05.147Z,92.30
2018-12-30T07:20:42.619Z,92.30
2018-12-30T07:23:20.147Z,92.50
2018-12-30T07:25:57.631Z,92.50
2018-12-30T07:28:35.145Z,92.60
2018-12-30T07:31:12.657Z,92.50
2018-12-30T07:33:50.138Z,92.50
2018-12-30T07:36:27.648Z,92.60
2018-12-30T07:39:05.135Z,92.60
2018-12-30T07:41:42.992Z,92.50
2018-12-30T07:44:20.474Z,92.60
2018-12-30T07:46:57.975Z,92.60
2018-12-30T07:49:35.470Z,92.60
2018-12-30T07:52:12.990Z,92.80
2018-12-30T07:54:50.476Z,92.80
2018-12-30T07:57:27.985Z,92.70
2018-12-30T08:00:05.488Z,92.60
2018-12-30T08:02:43.855Z,92.60
2018-12-30T08:05:21.335Z,92.40
2018-12-30T08:07:58.827Z,92.40
2018-12-30T08:10:36.293Z,92.20
2018-12-30T08:13:13.796Z,92.00
2018-12-30T08:15:51.277Z,92.00
2018-12-30T08:18:28.796Z,91.90
2018-12-30T08:21:06.412Z,91.90
2018-12-30T08:23:43.930Z,91.70
2018-12-30T08:26:21.401Z,91.70
2018-12-30T08:28:58.939Z,91.60
2018-12-30T08:31:36.434Z,91.50
2018-12-30T08:34:13.949Z,91.40
2018-12-30T08:36:51.458Z,91.30
2018-12-30T08:39:28.962Z,91.30
2018-12-30T08:42:06.447Z,91.30
2018-12-30T08:44:43.922Z,91.40
2018-12-30T08:47:21.425Z,91.30
2018-12-30T08:49:58.900Z,91.50
2018-12-30T08:52:36.408Z,91.60
2018-12-30T08:55:13.904Z,91.40
2018-12-30T08:57:51.404Z,91.30
2018-12-30T09:00:28.870Z,91.20
2018-12-30T09:03:06.383Z,91.00
2018-12-30T09:05:43.873Z,90.90
2018-12-30T09:08:21.385Z,90.70
2018-12-30T09:10:58.863Z,90.70
2018-12-30T09:13:36.375Z,90.70
2018-12-30T09:16:13.870Z,90.50
2018-12-30T09:18:51.877Z,90.40
2018-12-30T09:21:29.351Z,90.30
2018-12-30T09:24:06.847Z,90.40
2018-12-30T09:26:44.328Z,90.40
2018-12-30T09:29:21.848Z,90.80
2018-12-30T09:31:59.338Z,90.50
2018-12-30T09:34:36.846Z,90.60
2018-12-30T09:37:14.346Z,90.70
2018-12-30T09:39:51.828Z,90.80
2018-12-30T09:42:29.363Z,90.80
2018-12-30T09:45:06.942Z,90.70
2018-12-30T09:47:44.476Z,90.70
2018-12-30T09:50:21.943Z,90.70
2018-12-30T09:52:59.446Z,90.50
2018-12-30T09:55:36.922Z,90.50
2018-12-30T09:58:14.410Z,90.50
2018-12-30T10:00:51.895Z,90.30
2018-12-30T10:03:29.407Z,90.30
2018-12-30T10:06:06.888Z,90.50
2018-12-30T10:08:45.399Z,90.00
2018-12-30T10:11:22.949Z,90.00
2018-12-30T10:14:00.475Z,90.00
2018-12-30T10:16:37.946Z,89.80
2018-12-30T10:19:15.530Z,88.90
2018-12-30T10:21:53.027Z,89.10
2018-12-30T10:24:30.527Z,89.00
2018-12-30T10:27:08.006Z,88.80
2018-12-30T10:29:45.573Z,88.60
2018-12-30T10:32:23.736Z,88.50
2018-12-30T10:35:01.231Z,88.20
2018-12-30T10:37:38.778Z,88.40
2018-12-30T10:40:16.272Z,88.30
2018-12-30T10:42:53.788Z,88.60
2018-12-30T10:45:31.267Z,88.40
2018-12-30T10:48:08.760Z,88.70
2018-12-30T10:50:46.245Z,88.70
2018-12-30T10:53:23.977Z,88.80
2018-12-30T10:56:01.463Z,89.00
2018-12-30T10:58:38.967Z,89.30
2018-12-30T11:01:16.444Z,89.80
2018-12-30T11:03:53.963Z,90.10
2018-12-30T11:06:31.455Z,90.10
2018-12-30T11:09:10.692Z,90.20
2018-12-30T11:11:48.839Z,90.00
2018-12-30T11:14:25.728Z,90.00
2018-12-30T11:17:03.220Z,90.10
2018-12-30T11:19:40.758Z,90.20
2018-12-30T11:22:18.241Z,90.10
2018-12-30T11:24:55.791Z,89.70
2018-12-30T11:27:33.295Z,89.30
2018-12-30T11:30:11.899Z,88.40
2018-12-30T11:32:49.434Z,88.00
2018-12-30T11:35:27.530Z,87.40
2018-12-30T11:38:05.081Z,87.30
2018-12-30T11:40:42.562Z,87.00
2018-12-30T11:43:20.159Z,86.60
2018-12-30T11:45:57.659Z,86.20
2018-12-30T11:48:35.291Z,85.90
2018-12-30T11:51:12.790Z,85.60
2018-12-30T11:53:50.345Z,85.20
2018-12-30T11:56:27.836Z,85.10
2018-12-30T11:59:05.396Z,84.70
2018-12-30T12:01:42.915Z,84.00
2018-12-30T12:04:20.451Z,83.20
2018-12-30T12:06:58.032Z,82.70
2018-12-30T12:09:35.544Z,82.60
2018-12-30T12:12:13.043Z,82.30
2018-12-30T12:14:50.522Z,82.30
2018-12-30T12:17:28.026Z,82.30
2018-12-30T12:20:06.940Z,82.60
2018-12-30T12:22:44.380Z,82.70
2018-12-30T12:25:21.883Z,83.00
2018-12-30T12:27:59.365Z,83.00
2018-12-30T12:30:37.007Z,83.20
2018-12-30T12:33:14.480Z,83.40
2018-12-30T12:35:54.591Z,83.30
2018-12-30T12:38:32.110Z,83.20
2018-12-30T12:41:09.598Z,82.70
2018-12-30T12:43:47.787Z,83.30
2018-12-30T12:46:25.819Z,82.20
2018-12-30T12:49:03.382Z,81.90
2018-12-30T12:51:40.862Z,81.40
2018-12-30T12:54:18.442Z,81.30
2018-12-30T12:56:55.951Z,81.20
2018-12-30T12:59:33.548Z,80.50
2018-12-30T13:02:10.960Z,80.40
2018-12-30T13:04:48.478Z,80.00
2018-12-30T13:07:26.088Z,79.50
2018-12-30T13:10:03.601Z,79.50
2018-12-30T13:12:41.095Z,79.60
2018-12-30T13:15:18.611Z,79.70
2018-12-30T13:17:56.098Z,79.80
2018-12-30T13:20:33.586Z,80.20
2018-12-30T13:23:11.068Z,80.10
2018-12-30T13:25:48.568Z,80.10
2018-12-30T13:28:26.080Z,80.20
2018-12-30T13:31:03.598Z,80.40
2018-12-30T13:33:41.119Z,79.80
2018-12-30T13:36:19.870Z,80.20
2018-12-30T13:38:57.383Z,80.30
2018-12-30T13:41:34.884Z,80.50
2018-12-30T13:44:12.397Z,80.20
2018-12-30T13:46:49.894Z,80.80
2018-12-30T13:49:32.061Z,80.80
2018-12-30T13:52:09.627Z,80.80
2018-12-30T13:54:47.834Z,81.10
2018-12-30T13:57:24.675Z,81.10
2018-12-30T14:00:02.183Z,80.70
2018-12-30T14:02:39.769Z,81.00
2018-12-30T14:05:17.307Z,81.00
2018-12-30T14:07:54.807Z,80.80
2018-12-30T14:10:32.312Z,80.80
2018-12-30T14:13:09.815Z,80.90
2018-12-30T14:15:51.076Z,81.10
2018-12-30T14:18:25.005Z,81.20
2018-12-30T14:21:02.536Z,82.00
2018-12-30T14:23:40.047Z,81.40
2018-12-30T14:26:17.632Z,81.50
2018-12-30T14:28:55.105Z,81.40
2018-12-30T14:31:32.627Z,81.50
2018-12-30T14:34:10.159Z,81.80
2018-12-30T14:36:47.698Z,81.90
2018-12-30T14:39:25.211Z,81.90
2018-12-30T14:42:02.724Z,81.70
2018-12-30T14:44:40.280Z,82.10
2018-12-30T14:47:17.827Z,82.30
2018-12-30T14:49:55.597Z,82.10
2018-12-30T14:52:33.406Z,82.20
2018-12-30T14:55:14.421Z,82.30
2018-12-30T14:57:51.916Z,82.50
2018-12-30T15:00:29.448Z,82.50
2018-12-30T15:03:07.076Z,82.60
2018-12-30T15:05:44.609Z,82.50
2018-12-30T15:08:22.120Z,82.70
2018-12-30T15:10:59.636Z,82.50
2018-12-30T15:13:37.141Z,82.40
2018-12-30T15:16:14.661Z,82.60
2018-12-30T15:18:52.193Z,82.70
2018-12-30T15:21:29.729Z,82.60
2018-12-30T15:24:07.250Z,82.70
2018-12-30T15:26:44.802Z,82.50
2018-12-30T15:29:22.325Z,82.40
2018-12-30T15:31:59.889Z,82.30
2018-12-30T15:34:37.403Z,82.40
2018-12-30T15:37:14.939Z,82.60
2018-12-30T15:39:52.459Z,83.30
2018-12-30T15:42:29.957Z,84.00
2018-12-30T15:45:07.679Z,84.60
2018-12-30T15:47:45.179Z,85.20
2018-12-30T15:50:22.754Z,85.80
2018-12-30T15:53:00.264Z,86.30
2018-12-30T15:55:37.801Z,86.70
2018-12-30T15:58:15.321Z,86.90
2018-12-30T16:00:52.843Z,87.00
2018-12-30T16:03:30.330Z,87.00
2018-12-30T16:06:07.828Z,87.00
2018-12-30T16:08:45.397Z,87.20
2018-12-30T16:11:23.161Z,87.10
2018-12-30T16:14:00.731Z,87.20
2018-12-30T16:16:38.293Z,87.30
2018-12-30T16:19:15.772Z,87.20
2018-12-30T16:21:53.376Z,87.30
2018-12-30T16:24:30.873Z,87.30
2018-12-30T16:27:08.362Z,87.30
2018-12-30T16:29:45.894Z,87.40
2018-12-30T16:32:23.417Z,87.30
2018-12-30T16:35:00.896Z,87.30
2018-12-30T16:37:38.405Z,87.20
2018-12-30T16:40:15.946Z,87.20
2018-12-30T16:42:53.461Z,87.20
2018-12-30T16:45:31.061Z,87.20
2018-12-30T16:48:08.599Z,87.20
2018-12-30T16:50:46.099Z,87.00
2018-12-30T16:53:23.577Z,87.10
2018-12-30T16:56:01.146Z,87.10
2018-12-30T16:58:38.736Z,87.30
2018-12-30T17:01:16.248Z,87.30
2018-12-30T17:03:53.757Z,88.10
2018-12-30T17:06:34.087Z,87.30
2018-12-30T17:09:10.305Z,87.40
2018-12-30T17:11:47.833Z,87.30
2018-12-30T17:14:25.358Z,87.30
2018-12-30T17:17:02.917Z,87.40
2018-12-30T17:19:40.434Z,87.60
2018-12-30T17:22:17.955Z,87.60
2018-12-30T17:24:55.431Z,87.50
2018-12-30T17:27:32.947Z,87.60
2018-12-30T17:30:12.195Z,87.40
2018-12-30T17:32:49.727Z,87.30
2018-12-30T17:35:27.832Z,87.20
2018-12-30T17:38:05.568Z,87.20
2018-12-30T17:40:43.051Z,87.00
2018-12-30T17:43:20.575Z,86.90
2018-12-30T17:45:58.204Z,86.70
2018-12-30T17:48:35.713Z,86.70
2018-12-30T17:51:13.560Z,86.40
2018-12-30T17:53:51.066Z,86.30
2018-12-30T17:56:28.672Z,86.40
2018-12-30T17:59:06.233Z,86.30
2018-12-30T18:01:43.746Z,86.40
2018-12-30T18:04:21.235Z,86.50
2018-12-30T18:06:59.543Z,86.60
2018-12-30T18:09:37.241Z,86.60
2018-12-30T18:12:14.879Z,86.60
2018-12-30T18:14:52.568Z,86.70
2018-12-30T18:17:30.215Z,86.70
2018-12-30T18:20:08.033Z,86.70
2018-12-30T18:22:45.539Z,86.80
2018-12-30T18:25:23.060Z,86.70
2018-12-30T18:28:00.548Z,86.70
2018-12-30T18:30:38.062Z,86.70
2018-12-30T18:33:15.642Z,86.80
2018-12-30T18:35:53.133Z,86.80
2018-12-30T18:38:30.640Z,86.70
2018-12-30T18:41:08.125Z,86.70
2018-12-30T18:43:45.649Z,86.70
2018-12-30T18:46:23.152Z,86.70
2018-12-30T18:49:00.649Z,86.90
2018-12-30T18:51:38.222Z,87.00
2018-12-30T18:54:16.636Z,87.30
2018-12-30T18:56:54.357Z,87.50
2018-12-30T18:59:31.869Z,87.90
2018-12-30T19:02:09.372Z,87.90
2018-12-30T19:04:46.863Z,88.00
2018-12-30T19:07:24.358Z,88.10
2018-12-30T19:10:01.864Z,88.20
2018-12-30T19:12:39.365Z,88.10
2018-12-30T19:15:16.843Z,88.30
2018-12-30T19:17:54.500Z,88.40
2018-12-30T19:20:32.083Z,88.80
2018-12-30T19:23:09.732Z,89.30
2018-12-30T19:25:47.579Z,89.90
2018-12-30T19:28:25.207Z,90.10
2018-12-30T19:31:02.794Z,90.10
2018-12-30T19:33:40.424Z,90.10
2018-12-30T19:36:17.980Z,90.20
2018-12-30T19:38:55.906Z,90.30
2018-12-30T19:41:33.496Z,90.50
2018-12-30T19:44:11.160Z,90.70
2018-12-30T19:46:49.279Z,91.00
2018-12-30T19:49:26.804Z,91.20
2018-12-30T19:52:04.399Z,91.50
2018-12-30T19:54:41.928Z,91.60
2018-12-30T19:57:20.018Z,91.80
2018-12-30T19:59:57.514Z,91.90
2018-12-30T20:02:35.045Z,92.10
2018-12-30T20:05:12.612Z,92.30
2018-12-30T20:07:50.202Z,92.50
2018-12-30T20:10:27.756Z,92.60
2018-12-30T20:13:09.016Z,92.60
2018-12-30T20:15:42.896Z,92.60
2018-12-30T20:18:20.532Z,92.70
2018-12-30T20:20:58.109Z,92.80
2018-12-30T20:23:35.759Z,92.90
2018-12-30T20:26:13.352Z,92.90
2018-12-30T20:28:50.956Z,92.90
2018-12-30T20:31:28.625Z,92.90
2018-12-30T20:34:06.287Z,93.00
2018-12-30T20:36:43.892Z,93.00
2018-12-30T20:39:21.435Z,93.00
2018-12-30T20:41:58.925Z,93.00
2018-12-30T20:44:36.478Z,93.10
2018-12-30T20:47:14.046Z,93.30
2018-12-30T20:49:51.778Z,93.50
2018-12-30T20:52:29.326Z,93.80
2018-12-30T20:55:06.876Z,93.90
2018-12-30T20:57:44.419Z,94.00
2018-12-30T21:00:21.903Z,94.30
2018-12-30T21:02:59.427Z,94.40
2018-12-30T21:05:36.991Z,94.60
2018-12-30T21:08:14.510Z,94.70
2018-12-30T21:10:52.022Z,94.70
2018-12-30T21:13:29.629Z,94.70
2018-12-30T21:16:07.125Z,94.60
2018-12-30T21:18:44.626Z,94.50
2018-12-30T21:21:22.111Z,94.40
2018-12-30T21:23:59.621Z,94.30
2018-12-30T21:26:45.220Z,94.20
2018-12-30T21:29:15.357Z,94.20
2018-12-30T21:31:52.843Z,94.20
2018-12-30T21:34:30.361Z,94.30
2018-12-30T21:37:07.924Z,94.30
2018-12-30T21:39:45.330Z,94.30
2018-12-30T21:42:22.810Z,94.20
2018-12-30T21:45:00.322Z,94.20
2018-12-30T21:47:37.802Z,94.10
2018-12-30T21:50:15.300Z,94.00
2018-12-30T21:52:52.773Z,94.00
2018-12-30T21:55:30.241Z,94.00
2018-12-30T21:58:07.738Z,93.90
2018-12-30T22:00:45.217Z,93.80
2018-12-30T22:03:22.770Z,93.70
2018-12-30T22:06:00.248Z,93.70
2018-12-30T22:08:37.752Z,93.70
2018-12-30T22:11:15.228Z,93.60
2018-12-30T22:13:52.720Z,93.60
2018-12-30T22:16:30.198Z,94.00
2018-12-30T22:19:07.713Z,93.50
2018-12-30T22:21:45.187Z,93.50
2018-12-30T22:24:22.681Z,93.60
2018-12-30T22:27:00.192Z,93.60
2018-12-30T22:29:37.681Z,93.70
2018-12-30T22:32:15.231Z,93.80
2018-12-30T22:34:52.741Z,93.80
2018-12-30T22:37:30.224Z,93.80
2018-12-30T22:40:08.765Z,93.70
2018-12-30T22:42:46.247Z,93.60
2018-12-30T22:45:23.746Z,93.60
2018-12-30T22:48:01.227Z,93.50
2018-12-30T22:50:38.734Z,93.90
2018-12-30T22:53:16.239Z,93.50
2018-12-30T22:55:53.717Z,93.40
2018-12-30T22:58:31.234Z,93.40
2018-12-30T23:01:14.846Z,93.40
2018-12-30T23:03:52.345Z,93.40
2018-12-30T23:06:29.822Z,93.40
2018-12-30T23:09:09.041Z,93.40
2018-12-30T23:11:46.528Z,93.40
2018-12-30T23:14:24.024Z,93.30
2018-12-30T23:17:01.511Z,93.20
2018-12-30T23:19:39.003Z,93.20
2018-12-30T23:22:16.488Z,93.20
2018-12-30T23:24:53.998Z,93.20
2018-12-30T23:27:31.492Z,93.20
2018-12-30T23:30:09.260Z,93.20
2018-12-30T23:32:46.745Z,93.10
2018-12-30T23:35:24.252Z,93.10
2018-12-30T23:38:01.739Z,93.00
2018-12-30T23:40:39.268Z,93.00
2018-12-30T23:43:16.750Z,93.00
2018-12-30T23:45:54.256Z,93.00
2018-12-30T23:48:31.756Z,92.90
2018-12-30T23:51:09.270Z,92.90
2018-12-30T23:53:46.764Z,92.90
2018-12-30T23:56:24.251Z,92.80
2018-12-30T23:59:01.761Z,92.80
